Time;durP1;ratioP1;P1;durP2;ratioP2;P2;SDS_P1;SDS_P2;PMS_P1;PMS_P2;Temp;Humidity;BMP_temperature;BMP_pressure;BME280_temperature;BME280_humidity;BME280_pressure;Samples;Min_cycle;Max_cycle;Signal;HPM_P1;HPM_P2
2022/09/12 00:01:15;;;;;;;29.02;19.60;;;;;;;12.29;100.00;101697.41;5032613;28;20025;-71
2022/09/12 00:03:41;;;;;;;23.85;19.23;;;;;;;12.33;100.00;101702.56;5032376;28;20032;-71
2022/09/12 00:06:14;;;;;;;25.67;19.55;;;;;;;12.31;100.00;101700.84;5031771;28;20029;-71
2022/09/12 00:08:39;;;;;;;25.52;19.05;;;;;;;12.28;100.00;101701.75;5032028;28;20377;-72
2022/09/12 00:11:11;;;;;;;25.45;18.55;;;;;;;12.26;100.00;101700.06;5032543;28;20025;-71
2022/09/12 00:13:38;;;;;;;27.10;19.30;;;;;;;12.21;100.00;101686.22;5031111;28;20041;-71
2022/09/12 00:16:04;;;;;;;25.08;17.98;;;;;;;12.21;100.00;101686.22;5032428;28;20026;-71
2022/09/12 00:18:30;;;;;;;25.50;18.55;;;;;;;12.18;100.00;101681.91;5031998;28;20021;-72
2022/09/12 00:20:56;;;;;;;27.70;19.98;;;;;;;12.12;100.00;101677.63;5031402;28;20358;-72
2022/09/12 00:23:21;;;;;;;25.75;19.77;;;;;;;12.13;100.00;101681.09;5034814;28;20028;-72
2022/09/12 00:25:48;;;;;;;25.98;19.67;;;;;;;12.12;100.00;101687.22;5035871;28;20065;-71
2022/09/12 00:28:15;;;;;;;29.35;21.30;;;;;;;12.10;100.00;101687.25;5035139;28;20021;-72
2022/09/12 00:30:45;;;;;;;25.80;19.80;;;;;;;12.09;100.00;101689.88;5035650;28;20386;-72
2022/09/12 00:33:11;;;;;;;25.80;19.17;;;;;;;12.07;100.00;101683.84;5035598;28;20156;-71
2022/09/12 00:35:45;;;;;;;26.20;18.58;;;;;;;12.09;100.00;101684.66;5034714;28;20120;-71
2022/09/12 00:38:11;;;;;;;;;;;;;;;12.09;100.00;101674.19;5036316;28;20029;-71
2022/09/12 00:40:37;;;;;;;24.73;18.88;;;;;;;12.06;100.00;101675.09;5035379;28;19917;-71
2022/09/12 00:43:02;;;;;;;27.48;19.65;;;;;;;12.00;100.00;101671.72;5034831;28;20021;-71
2022/09/12 00:45:29;;;;;;;27.42;19.20;;;;;;;11.95;100.00;101666.59;5035162;28;20029;-71
2022/09/12 00:47:57;;;;;;;26.23;19.88;;;;;;;11.91;100.00;101662.31;5034477;28;20052;-72
2022/09/12 00:50:23;;;;;;;26.05;19.58;;;;;;;11.89;100.00;101664.94;5035334;28;20029;-72
2022/09/12 00:52:56;;;;;;;25.40;19.80;;;;;;;11.87;100.00;101663.22;5035486;28;20384;-71
2022/09/12 00:55:27;;;;;;;27.15;20.60;;;;;;;11.88;100.00;101668.44;5034433;28;20052;-71
2022/09/12 00:57:55;;;;;;;28.90;20.92;;;;;;;11.91;100.00;101673.63;5035230;28;20499;-71
2022/09/12 01:00:23;;;;;;;26.23;20.50;;;;;;;11.89;100.00;101664.94;5034894;28;20037;-71
2022/09/12 01:02:55;;;;;;;27.67;20.33;;;;;;;11.84;100.00;101658.94;5034584;28;20023;-71
2022/09/12 01:05:23;;;;;;;27.08;20.98;;;;;;;11.88;100.00;101662.34;5034992;28;20033;-71
2022/09/12 01:07:49;;;;;;;27.55;20.48;;;;;;;11.88;100.00;101652.75;5035206;28;20067;-71
2022/09/12 01:10:15;;;;;;;25.58;20.20;;;;;;;11.90;100.00;101652.72;5034258;28;20033;-71
2022/09/12 01:12:42;;;;;;;28.92;20.85;;;;;;;11.79;100.00;101638.94;5035009;28;20037;-71
2022/09/12 01:15:09;;;;;;;26.52;20.25;;;;;;;11.83;100.00;101646.69;5034833;28;20041;-71
2022/09/12 01:18:08;;;;;;;27.55;21.35;;;;;;;11.80;100.00;101646.75;5034082;28;20048;-71
2022/09/12 01:20:46;;;;;;;28.73;20.80;;;;;;;11.73;100.00;101638.16;5034558;28;20495;-71
2022/09/12 01:23:49;;;;;;;26.17;21.17;;;;;;;11.73;100.00;101648.59;5033974;28;20033;-71
2022/09/12 01:26:34;;;;;;;28.83;22.10;;;;;;;11.73;100.00;101637.28;5034819;28;20036;-71
2022/09/12 01:29:11;;;;;;;29.00;22.15;;;;;;;11.73;100.00;101632.06;5034888;28;20033;-71
2022/09/12 01:31:48;;;;;;;35.72;22.85;;;;;;;11.70;100.00;101632.97;5033441;28;20038;-71
2022/09/12 01:34:26;;;;;;;33.28;23.50;;;;;;;11.70;100.00;101637.34;5033913;28;20392;-71
2022/09/12 01:37:19;;;;;;;33.95;23.67;;;;;;;11.62;100.00;101627.00;5034725;28;20021;-71
2022/09/12 01:40:39;;;;;;;37.75;25.30;;;;;;;11.68;100.00;101629.53;5034461;28;20040;-71
2022/09/12 01:43:44;;;;;;;34.30;25.80;;;;;;;11.64;100.00;101629.59;5031678;28;20393;-71
2022/09/12 01:46:16;;;;;;;;;;;;;;;11.67;100.00;101633.03;5034047;28;20040;-72
2022/09/12 01:48:55;;;;;;;34.67;25.05;;;;;;;11.68;100.00;101626.94;5034061;28;20281;-71
2022/09/12 01:51:31;;;;;;;41.65;25.77;;;;;;;11.73;100.00;101635.53;5033123;28;20813;-71
2022/09/12 01:54:07;;;;;;;38.53;27.08;;;;;;;11.68;100.00;101631.28;5034324;28;20393;-71
2022/09/12 01:56:35;;;;;;;34.65;25.13;;;;;;;11.69;100.00;101631.25;5033836;28;20036;-71
2022/09/12 01:59:07;;;;;;;36.53;26.23;;;;;;;11.65;100.00;101623.50;5033550;28;20025;-71
2022/09/12 02:01:43;;;;;;;39.13;25.25;;;;;;;11.66;100.00;101612.16;5033771;28;20515;-71
2022/09/12 02:04:15;;;;;;;36.10;25.60;;;;;;;11.65;100.00;101610.44;5034030;28;20419;-71
2022/09/12 02:06:48;;;;;;;34.38;25.85;;;;;;;11.63;100.00;101605.22;5033283;28;20538;-71
2022/09/12 02:09:19;;;;;;;34.67;25.25;;;;;;;11.62;100.00;101611.34;5033913;28;20036;-71
2022/09/12 02:11:46;;;;;;;35.53;24.58;;;;;;;11.55;100.00;101595.81;5034015;28;20033;-71
2022/09/12 02:14:18;;;;;;;36.03;25.30;;;;;;;11.55;100.00;101601.88;5033263;28;20021;-71
2022/09/12 02:16:52;;;;;;;32.65;24.63;;;;;;;11.46;100.00;101592.44;5034025;28;20025;-71
2022/09/12 02:19:22;;;;;;;33.47;24.27;;;;;;;11.43;100.00;101591.63;5032798;28;20522;-71
2022/09/12 02:21:52;;;;;;;33.70;25.20;;;;;;;11.44;100.00;101602.06;5033615;28;20580;-71
2022/09/12 02:24:20;;;;;;;35.05;24.63;;;;;;;11.47;100.00;101598.50;5033557;28;20037;-71
2022/09/12 02:27:00;;;;;;;36.60;25.65;;;;;;;11.44;100.00;101602.06;5032960;28;20026;-71
2022/09/12 02:29:25;;;;;;;36.22;25.23;;;;;;;11.44;100.00;101604.66;5033379;28;20461;-71
2022/09/12 02:31:58;;;;;;;35.00;25.00;;;;;;;11.39;100.00;101605.63;5033409;28;20040;-71
2022/09/12 02:34:40;;;;;;;34.40;24.03;;;;;;;11.41;100.00;101617.75;5032429;28;20465;-71
2022/09/12 02:37:43;;;;;;;33.38;24.75;;;;;;;11.40;100.00;101609.94;5033406;28;20373;-71
2022/09/12 02:40:09;;;;;;;35.40;23.55;;;;;;;11.40;100.00;101602.97;5024953;28;20034;-71
2022/09/12 02:42:35;;;;;;;34.65;23.08;;;;;;;11.34;100.00;101595.22;5032275;28;20049;-71
2022/09/12 02:45:02;;;;;;;31.48;23.05;;;;;;;11.34;100.00;101602.19;5033112;28;20041;-71
2022/09/12 02:47:33;;;;;;;30.35;22.95;;;;;;;11.39;100.00;101603.00;5032376;28;20026;-71
2022/09/12 02:49:59;;;;;;;34.00;24.40;;;;;;;11.32;100.00;101576.13;5032906;28;20591;-71
2022/09/12 02:52:25;;;;;;;31.65;23.30;;;;;;;11.34;100.00;101592.59;5032935;28;20108;-71
2022/09/12 02:54:51;;;;;;;33.13;24.33;;;;;;;11.35;100.00;101588.28;5032305;28;20033;-71
2022/09/12 02:57:18;;;;;;;31.38;23.08;;;;;;;11.36;100.00;101587.38;5033018;28;20036;-71
2022/09/12 02:59:44;;;;;;;32.95;23.67;;;;;;;11.35;100.00;101583.06;5033018;28;20025;-71
2022/09/12 03:02:19;;;;;;;34.67;23.65;;;;;;;11.33;100.00;101585.66;5032586;28;20432;-71
2022/09/12 03:04:53;;;;;;;32.30;23.60;;;;;;;11.28;100.00;101576.16;5033097;28;20095;-71
2022/09/12 03:07:45;;;;;;;34.80;23.83;;;;;;;11.27;100.00;101579.69;5032667;28;20037;-71
2022/09/12 03:10:20;;;;;;;32.22;23.77;;;;;;;11.27;100.00;101575.31;5032168;28;20022;-71
2022/09/12 03:13:16;;;;;;;37.42;25.10;;;;;;;11.25;100.00;101577.97;5032892;28;20081;-71
2022/09/12 03:16:06;;;;;;;35.70;24.67;;;;;;;11.20;100.00;101573.69;5031983;28;20100;-71
2022/09/12 03:19:08;;;;;;;33.13;24.10;;;;;;;11.22;100.00;101571.94;5032727;28;20030;-71
2022/09/12 03:22:07;;;;;;;37.22;24.80;;;;;;;11.24;100.00;101567.53;5032559;28;20436;-71
2022/09/12 03:24:38;;;;;;;32.45;22.75;;;;;;;11.23;100.00;101568.41;5031938;28;20026;-71
2022/09/12 03:27:28;;;;;;;36.80;24.65;;;;;;;11.24;100.00;101567.53;5032683;28;20359;-71
2022/09/12 03:29:55;;;;;;;37.13;24.30;;;;;;;11.23;100.00;101568.41;5031991;28;20025;-71
2022/09/12 03:32:39;;;;;;;36.22;24.20;;;;;;;11.22;100.00;101570.19;5032270;28;20021;-71
2022/09/12 03:35:05;;;;;;;33.92;24.05;;;;;;;11.21;100.00;101564.97;5032660;28;20549;-71
2022/09/12 03:37:30;;;;;;;35.10;24.17;;;;;;;11.22;100.00;101566.72;5031739;28;20121;-71
2022/09/12 03:39:55;;;;;;;38.05;24.95;;;;;;;11.10;100.00;101551.22;5032771;28;20370;-71
2022/09/12 03:42:20;;;;;;;35.22;24.63;;;;;;;11.17;100.00;101560.69;5032402;28;20132;-71
2022/09/12 03:44:46;;;;;;;36.92;23.73;;;;;;;11.16;100.00;101558.97;5031924;28;20026;-71
2022/09/12 03:47:11;;;;;;;36.03;25.00;;;;;;;11.21;100.00;101563.22;5032512;28;20029;-71
2022/09/12 03:49:36;;;;;;;35.22;24.20;;;;;;;11.15;100.00;101554.59;5032103;28;20049;-71
2022/09/12 03:52:04;;;;;;;31.58;23.77;;;;;;;11.19;100.00;101567.59;5031814;28;20065;-71
2022/09/12 03:54:29;;;;;;;37.00;24.85;;;;;;;11.19;100.00;101561.53;5032276;28;20033;-71
2022/09/12 03:56:54;;;;;;;34.90;23.77;;;;;;;11.20;100.00;101558.88;5033276;28;20029;-71
2022/09/12 03:59:20;;;;;;;39.67;25.40;;;;;;;11.21;100.00;101554.53;5035381;28;20032;-71
2022/09/12 04:01:45;;;;;;;37.92;24.85;;;;;;;11.21;100.00;101551.91;5036235;28;20473;-70
2022/09/12 04:04:10;;;;;;;36.92;24.90;;;;;;;11.20;100.00;101560.63;5036314;28;20026;-71
2022/09/12 04:06:36;;;;;;;35.80;24.65;;;;;;;11.24;100.00;101551.88;5035466;28;20228;-71
2022/09/12 04:09:01;;;;;;;41.85;26.88;;;;;;;11.24;100.00;101549.25;5036366;28;20423;-71
2022/09/12 04:11:26;;;;;;;40.58;26.08;;;;;;;11.25;100.00;101540.56;5035658;28;20033;-71
2022/09/12 04:13:51;;;;;;;39.72;26.55;;;;;;;11.24;100.00;101544.91;5035417;28;20026;-71
2022/09/12 04:16:17;;;;;;;40.95;26.30;;;;;;;11.27;100.00;101536.16;5035675;28;20053;-71
2022/09/12 04:18:44;;;;;;;40.55;26.80;;;;;;;11.14;100.00;101521.56;5035651;28;20029;-71
2022/09/12 04:21:13;;;;;;;41.38;27.27;;;;;;;11.31;100.00;101539.59;5035920;28;20381;-71
2022/09/12 04:23:39;;;;;;;42.13;28.42;;;;;;;11.35;100.00;101539.53;5035736;28;20124;-71
2022/09/12 04:26:07;;;;;;;44.92;28.08;;;;;;;11.23;100.00;101521.44;5035213;28;20141;-71
2022/09/12 04:28:35;;;;;;;41.90;27.27;;;;;;;11.38;100.00;101536.88;5035601;28;20488;-71
2022/09/12 04:31:06;;;;;;;44.78;28.33;;;;;;;11.42;100.00;101535.06;5035937;28;20025;-71
2022/09/12 04:33:33;;;;;;;44.92;26.90;;;;;;;11.45;100.00;101535.88;5034835;28;20029;-71
2022/09/12 04:36:04;;;;;;;43.72;27.65;;;;;;;11.45;100.00;101532.41;5035675;28;20465;-71
2022/09/12 04:38:29;;;;;;;42.83;28.50;;;;;;;11.44;100.00;101530.69;5035395;28;20025;-71
2022/09/12 04:40:55;;;;;;;45.20;27.95;;;;;;;11.45;100.00;101529.81;5034864;28;20017;-71
2022/09/12 04:43:21;;;;;;;41.65;27.48;;;;;;;11.45;100.00;101525.44;5035389;28;20048;-71
2022/09/12 04:45:46;;;;;;;43.17;27.20;;;;;;;11.44;100.00;101523.72;5035667;28;20033;-71
2022/09/12 04:48:11;;;;;;;44.03;28.17;;;;;;;11.40;100.00;101513.34;5034662;28;20041;-71
2022/09/12 04:50:36;;;;;;;45.75;28.92;;;;;;;11.45;100.00;101521.97;5035273;28;20033;-71
2022/09/12 04:53:02;;;;;;;43.30;28.58;;;;;;;11.42;100.00;101520.28;5035493;28;20087;-71
2022/09/12 04:55:27;;;;;;;45.78;28.52;;;;;;;11.43;100.00;101524.59;5034370;28;20055;-71
2022/09/12 04:57:53;;;;;;;46.85;28.60;;;;;;;11.44;100.00;101525.44;5035184;28;20424;-71
2022/09/12 05:00:18;;;;;;;43.85;28.25;;;;;;;11.39;100.00;101522.06;5034935;28;20027;-71
2022/09/12 05:02:43;;;;;;;45.47;28.20;;;;;;;11.41;100.00;101523.78;5034654;28;20026;-71
2022/09/12 05:05:09;;;;;;;44.75;28.05;;;;;;;11.44;100.00;101521.13;5035277;28;20036;-71
2022/09/12 05:07:35;;;;;;;44.92;28.63;;;;;;;11.44;100.00;101526.34;5034835;28;20064;-71
2022/09/12 05:10:02;;;;;;;45.00;28.85;;;;;;;11.45;100.00;101525.44;5033112;28;20026;-71
2022/09/12 05:12:27;;;;;;;50.90;29.08;;;;;;;11.45;100.00;101522.84;5034587;28;20034;-71
2022/09/12 05:14:53;;;;;;;46.35;29.05;;;;;;;11.48;100.00;101527.16;5035202;28;20032;-71
2022/09/12 05:17:18;;;;;;;46.83;29.40;;;;;;;11.48;100.00;101533.22;5034001;28;20039;-71
2022/09/12 05:19:46;;;;;;;45.80;29.15;;;;;;;11.49;100.00;101527.09;5034941;28;20535;-71
2022/09/12 05:22:11;;;;;;;54.10;29.52;;;;;;;11.55;100.00;101538.34;5034066;28;20037;-71
2022/09/12 05:24:38;;;;;;;48.13;30.05;;;;;;;11.54;100.00;101532.25;5034482;28;20092;-71
2022/09/12 05:27:03;;;;;;;46.10;28.50;;;;;;;11.53;100.00;101527.91;5034735;28;20029;-71
2022/09/12 05:29:29;;;;;;;49.45;30.27;;;;;;;11.59;100.00;101532.19;5033872;28;20033;-71
2022/09/12 05:31:54;;;;;;;47.80;30.40;;;;;;;11.63;100.00;101536.47;5034813;28;20036;-71
2022/09/12 05:34:20;;;;;;;48.00;29.63;;;;;;;11.63;100.00;101526.03;5034576;28;20025;-71
2022/09/12 05:36:45;;;;;;;48.88;31.05;;;;;;;11.56;100.00;101512.19;5033855;28;20025;-71
2022/09/12 05:39:11;;;;;;;50.08;30.40;;;;;;;11.66;100.00;101528.56;5034722;28;20029;-71
2022/09/12 05:41:36;;;;;;;49.58;31.27;;;;;;;11.69;100.00;101525.91;5034145;28;20116;-71
2022/09/12 05:44:04;;;;;;;49.75;29.33;;;;;;;11.72;100.00;101531.09;5033882;28;20014;-71
2022/09/12 05:46:35;;;;;;;49.05;30.30;;;;;;;11.75;100.00;101528.44;5034086;28;20373;-71
2022/09/12 05:49:06;;;;;;;44.83;28.88;;;;;;;11.77;100.00;101529.28;5034338;28;20157;-71
2022/09/12 05:51:35;;;;;;;47.05;29.77;;;;;;;11.81;100.00;101541.38;5033257;28;20028;-71
2022/09/12 05:54:02;;;;;;;50.30;31.42;;;;;;;11.85;100.00;101540.47;5034552;28;20017;-71
2022/09/12 05:56:33;;;;;;;50.90;29.90;;;;;;;11.87;100.00;101546.53;5034099;28;20021;-71
2022/09/12 05:59:01;;;;;;;48.33;29.77;;;;;;;11.88;100.00;101542.16;5033648;28;20041;-71
2022/09/12 06:01:27;;;;;;;45.75;29.10;;;;;;;11.94;100.00;101539.44;5033922;28;20100;-71
2022/09/12 06:03:54;;;;;;;49.97;29.75;;;;;;;11.98;100.00;101553.31;5034135;28;20057;-71
2022/09/12 06:06:22;;;;;;;45.70;30.85;;;;;;;11.95;100.00;101542.03;5033136;28;20037;-71
2022/09/12 06:08:49;;;;;;;49.17;30.15;;;;;;;11.99;100.00;101545.44;5033744;28;20041;-71
2022/09/12 06:11:20;;;;;;;46.70;28.55;;;;;;;12.07;100.00;101561.00;5033401;28;20389;-71
2022/09/12 06:13:46;;;;;;;46.30;29.45;;;;;;;12.06;100.00;101557.50;5033962;28;20040;-71
2022/09/12 06:16:19;;;;;;;47.50;29.35;;;;;;;11.99;100.00;101550.66;5033788;28;20026;-71
2022/09/12 06:18:50;;;;;;;44.92;28.35;;;;;;;12.00;100.00;101551.53;5033172;28;20036;-71
2022/09/12 06:21:16;;;;;;;49.92;30.58;;;;;;;12.04;100.00;101553.22;5032992;28;20025;-71
2022/09/12 06:23:41;;;;;;;53.47;30.10;;;;;;;12.04;100.00;101553.22;5033856;28;20373;-71
2022/09/12 06:26:09;;;;;;;48.50;30.42;;;;;;;11.99;100.00;101542.81;5033041;28;20061;-71
2022/09/12 06:28:36;;;;;;;47.58;30.05;;;;;;;12.04;100.00;101554.06;5033557;28;20036;-71
2022/09/12 06:31:12;;;;;;;47.50;30.02;;;;;;;12.05;100.00;101544.47;5033529;28;20465;-71
2022/09/12 06:33:40;;;;;;;49.17;30.55;;;;;;;12.08;100.00;101547.03;5032468;28;20036;-71
2022/09/12 06:36:18;;;;;;;51.38;29.95;;;;;;;12.11;100.00;101544.38;5033697;28;20115;-71
2022/09/12 06:38:47;;;;;;;48.80;29.88;;;;;;;12.12;100.00;101538.25;5033657;28;20017;-71
2022/09/12 06:41:14;;;;;;;51.75;30.42;;;;;;;12.15;100.00;101544.28;5032673;28;20079;-71
2022/09/12 06:43:40;;;;;;;47.55;30.45;;;;;;;12.18;100.00;101538.97;5033023;28;20022;-71
2022/09/12 06:46:06;;;;;;;44.67;29.48;;;;;;;12.25;100.00;101542.34;5033278;28;20025;-71
2022/09/12 06:48:32;;;;;;;43.05;27.63;;;;;;;12.29;100.00;101541.38;5031974;28;20397;-71
2022/09/12 06:51:01;;;;;;;47.28;30.52;;;;;;;12.37;100.00;101526.41;5033075;28;20045;-71
2022/09/12 06:53:27;;;;;;;50.30;30.02;;;;;;;12.54;100.00;101539.16;5032539;28;20025;-72
2022/09/12 06:56:00;;;;;;;44.20;26.90;;;;;;;12.60;100.00;101538.16;5033169;28;20105;-71
2022/09/12 06:58:27;;;;;;;40.35;27.95;;;;;;;12.64;100.00;101531.97;5032885;28;20033;-71
2022/09/12 07:01:01;;;;;;;40.53;27.35;;;;;;;12.66;100.00;101532.81;5032149;28;20477;-71
2022/09/12 07:03:27;;;;;;;45.17;28.48;;;;;;;12.68;100.00;101535.38;5032722;28;20579;-72
2022/09/12 07:05:52;;;;;;;43.15;28.33;;;;;;;12.69;100.00;101538.00;5033192;28;20096;-71
2022/09/12 07:08:17;;;;;;;39.33;27.00;;;;;;;12.64;100.00;101529.34;5032022;28;20519;-72
2022/09/12 07:10:43;;;;;;;43.33;28.25;;;;;;;12.64;100.00;101530.22;5032890;28;20057;-71
2022/09/12 07:13:08;;;;;;;42.70;27.98;;;;;;;12.69;100.00;101540.59;5032722;28;20041;-71
2022/09/12 07:15:35;;;;;;;42.47;28.50;;;;;;;12.71;100.00;101541.41;5031747;28;20025;-71
2022/09/12 07:18:00;;;;;;;43.20;28.40;;;;;;;12.72;100.00;101532.69;5033036;28;20045;-71
2022/09/12 07:20:26;;;;;;;39.92;26.92;;;;;;;12.77;100.00;101536.06;5032667;28;20060;-71
2022/09/12 07:22:51;;;;;;;43.47;28.88;;;;;;;12.77;100.00;101528.19;5032216;28;20056;-71
2022/09/12 07:25:16;;;;;;;39.50;27.00;;;;;;;12.82;100.00;101530.75;5032447;28;20486;-71
2022/09/12 07:27:42;;;;;;;44.85;27.70;;;;;;;12.92;100.00;101523.56;5032741;28;20030;-71
2022/09/12 07:30:07;;;;;;;44.03;28.33;;;;;;;13.04;100.00;101528.47;5032100;28;20469;-71
2022/09/12 07:32:33;;;;;;;42.78;28.80;;;;;;;13.17;100.00;101526.44;5034449;28;20032;-71
2022/09/12 07:34:58;;;;;;;40.50;27.27;;;;;;;13.29;100.00;101524.44;5036951;28;20033;-71
2022/09/12 07:37:24;;;;;;;40.50;28.17;;;;;;;13.42;100.00;101529.38;5035740;28;20071;-71
2022/09/12 07:39:49;;;;;;;40.15;28.17;;;;;;;13.52;100.00;101523.03;5036807;28;20025;-71
2022/09/12 07:42:15;;;;;;;39.78;27.52;;;;;;;13.62;100.00;101527.13;5036851;28;20147;-71
2022/09/12 07:44:41;;;;;;;36.92;26.65;;;;;;;13.67;100.00;101514.78;5035869;28;20383;-71
2022/09/12 07:47:06;;;;;;;38.97;26.90;;;;;;;13.84;100.00;101526.59;5036759;28;20104;-71
2022/09/12 07:49:31;;;;;;;37.35;25.35;;;;;;;13.92;100.00;101528.09;5036207;28;20041;-71
2022/09/12 07:51:57;;;;;;;35.40;25.60;;;;;;;14.04;100.00;101519.91;5035534;28;20034;-71
2022/09/12 07:54:22;;;;;;;35.95;25.58;;;;;;;14.12;100.00;101519.69;5036221;28;20104;-71
2022/09/12 07:56:47;;;;;;;37.88;25.90;;;;;;;14.21;100.00;101532.56;5035759;28;20384;-71
2022/09/12 07:59:13;;;;;;;33.88;25.00;;;;;;;14.28;100.00;101534.09;5036274;28;20065;-71
2022/09/12 08:01:40;;;;;;;35.38;24.80;;;;;;;14.41;100.00;101545.09;5036007;28;20026;-71
2022/09/12 08:04:08;;;;;;;29.52;22.67;;;;;;;14.49;100.00;101529.16;5035580;28;20941;-72
2022/09/12 08:06:35;;;;;;;31.73;23.70;;;;;;;14.59;100.00;101516.69;5036002;28;20381;-71
2022/09/12 08:09:00;;;;;;;29.67;23.02;;;;;;;14.68;100.00;101519.88;5036388;28;20109;-71
2022/09/12 08:11:28;;;;;;;37.72;24.98;;;;;;;14.86;100.00;101523.72;5035082;28;20109;-71
2022/09/12 08:13:55;;;;;;;33.75;24.00;;;;;;;14.96;100.00;101526.91;5035918;28;20029;-72
2022/09/12 08:16:22;;;;;;;30.77;23.80;;;;;;;15.04;100.00;101526.66;5035989;28;20037;-72
2022/09/12 08:18:48;;;;;;;29.85;23.40;;;;;;;15.20;100.00;101534.03;5035369;28;20021;-72
2022/09/12 08:21:20;;;;;;;30.23;22.92;;;;;;;15.27;100.00;101534.72;5036037;28;20025;-72
2022/09/12 08:23:46;;;;;;;33.53;22.40;;;;;;;15.30;100.00;101534.56;5036053;28;20021;-72
2022/09/12 08:26:11;;;;;;;31.52;21.38;;;;;;;15.37;100.00;101537.91;5035202;28;20151;-71
2022/09/12 08:28:40;;;;;;;29.30;21.63;;;;;;;15.43;100.00;101543.81;5035828;28;20018;-72
2022/09/12 08:31:09;;;;;;;28.85;20.48;;;;;;;15.42;100.00;101528.94;5035930;28;20021;-76
2022/09/12 08:33:35;;;;;;;27.63;21.00;;;;;;;15.57;100.00;101545.13;5034747;28;20388;-77
2022/09/12 08:36:14;;;;;;;27.95;21.20;;;;;;;15.42;100.00;101497.41;5035714;28;20017;-72
2022/09/12 08:38:43;;;;;;;27.20;21.27;;;;;;;15.81;100.00;101543.47;5035329;28;20025;-72
2022/09/12 08:41:17;;;;;;;26.15;20.67;;;;;;;15.94;100.00;101539.50;5034715;28;20025;-71
2022/09/12 08:43:58;;;;;;;25.25;18.90;;;;;;;16.11;100.00;101542.38;5035427;28;20037;-71
2022/09/12 08:46:29;;;;;;;26.77;19.08;;;;;;;16.24;100.00;101539.31;5034604;28;20029;-71
2022/09/12 08:48:56;;;;;;;25.17;19.60;;;;;;;16.36;100.00;101536.25;5035363;28;20133;-71
2022/09/12 08:51:22;;;;;;;26.10;18.83;;;;;;;16.55;100.00;101541.72;5034974;28;20053;-71
2022/09/12 08:53:53;;;;;;;26.40;19.20;;;;;;;16.66;100.00;101536.88;5034545;28;20135;-72
2022/09/12 08:56:18;;;;;;;23.23;18.23;;;;;;;16.76;100.00;101519.00;5035184;28;20036;-71
2022/09/12 08:58:45;;;;;;;23.52;16.58;;;;;;;17.02;100.00;101529.38;5035448;28;20022;-71
2022/09/12 09:01:29;;;;;;;23.60;16.83;;;;;;;17.02;100.00;101510.94;5034629;28;20030;-71
2022/09/12 09:04:14;;;;;;;18.80;15.63;;;;;;;17.28;100.00;101527.47;5035750;28;20034;-72
2022/09/12 09:06:42;;;;;;;20.23;16.08;;;;;;;17.40;100.00;101526.13;5035216;28;20175;-72
2022/09/12 09:09:53;;;;;;;18.73;16.02;;;;;;;17.50;100.00;101516.94;5034593;28;20021;-71
2022/09/12 09:12:29;;;;;;;18.40;13.88;;;;;;;17.65;100.00;101520.69;5034878;28;20119;-71
2022/09/12 09:15:13;;;;;;;18.02;13.13;;;;;;;17.74;100.00;101518.50;5034321;28;20026;-71
2022/09/12 09:17:46;;;;;;;17.20;14.05;;;;;;;17.87;100.00;101510.97;5034710;28;20018;-72
2022/09/12 09:20:37;;;;;;;15.50;13.60;;;;;;;17.91;100.00;101507.25;5034918;28;20112;-71
2022/09/12 09:23:06;;;;;;;18.02;14.32;;;;;;;18.01;97.73;101507.72;5034245;28;20060;-72
2022/09/12 09:25:42;;;;;;;13.38;11.55;;;;;;;18.13;98.88;101517.75;5034649;28;20040;-71
2022/09/12 09:28:22;;;;;;;16.00;12.68;;;;;;;18.22;97.40;101504.16;5034860;28;20033;-72
2022/09/12 09:30:48;;;;;;;16.00;11.13;;;;;;;18.34;98.35;101509.78;5034563;28;20358;-72
2022/09/12 09:33:23;;;;;;;15.93;12.57;;;;;;;18.40;96.33;101502.44;5034943;28;20033;-71
2022/09/12 09:36:07;;;;;;;16.60;12.32;;;;;;;18.53;95.17;101510.66;5034040;28;20057;-72
2022/09/12 09:38:35;;;;;;;;;;;;;;;18.63;100.00;101509.31;5034860;28;20021;-72
2022/09/12 09:41:24;;;;;;;12.32;10.80;;;;;;;18.80;91.39;101508.56;5034469;28;20016;-71
2022/09/12 09:43:49;;;;;;;11.80;10.02;;;;;;;18.97;90.19;101491.06;5033895;28;20029;-71
2022/09/12 09:46:15;;;;;;;12.35;10.18;;;;;;;19.04;89.22;101495.97;5034367;28;20036;-71
2022/09/12 09:48:44;;;;;;;14.02;9.80;;;;;;;19.16;88.73;101491.84;5034075;28;20493;-72
2022/09/12 09:51:10;;;;;;;12.27;9.40;;;;;;;19.32;87.11;101491.94;5033626;28;20112;-71
2022/09/12 09:53:45;;;;;;;11.93;8.88;;;;;;;19.35;88.42;101479.44;5033944;28;20369;-72
2022/09/12 09:56:21;;;;;;;11.30;8.80;;;;;;;19.52;88.93;101485.66;5033812;28;20022;-72
2022/09/12 09:58:46;;;;;;;9.93;8.38;;;;;;;19.70;86.60;101479.47;5034151;28;20029;-72
2022/09/12 10:01:15;;;;;;;12.60;8.95;;;;;;;19.78;81.95;101471.13;5034353;28;20032;-72
2022/09/12 10:03:55;;;;;;;11.45;8.38;;;;;;;19.92;84.55;101473.91;5033359;28;20029;-72
2022/09/12 10:06:33;;;;;;;10.70;8.18;;;;;;;20.03;84.26;101468.91;5033651;28;20021;-72
2022/09/12 10:09:13;;;;;;;10.65;7.55;;;;;;;20.15;83.21;101470.06;5033884;28;20404;-72
2022/09/12 10:11:39;;;;;;;10.30;7.20;;;;;;;20.25;82.54;101460.69;5032760;28;20030;-72
2022/09/12 10:14:24;;;;;;;9.80;6.50;;;;;;;20.37;80.36;101461.78;5034040;28;20033;-71
2022/09/12 10:16:52;;;;;;;8.75;6.70;;;;;;;20.45;80.23;101453.44;5033583;28;20033;-71
2022/09/12 10:19:41;;;;;;;7.25;6.55;;;;;;;20.58;76.04;101450.06;5032918;28;20025;-72
2022/09/12 10:22:16;;;;;;;7.90;6.75;;;;;;;20.62;78.36;101441.94;5033467;28;20033;-72
2022/09/12 10:24:51;;;;;;;7.78;6.90;;;;;;;20.76;75.85;101445.53;5033050;28;20116;-71
2022/09/12 10:27:25;;;;;;;7.93;7.13;;;;;;;20.74;76.50;101439.44;5033658;28;20060;-71
2022/09/12 10:29:54;;;;;;;14.43;7.25;;;;;;;20.85;76.30;101432.69;5033716;28;20040;-71
2022/09/12 10:32:37;;;;;;;7.93;7.18;;;;;;;20.99;76.36;101435.38;5032637;28;20025;-71
2022/09/12 10:35:24;;;;;;;10.17;7.13;;;;;;;21.13;79.03;101435.47;5033502;28;20075;-71
2022/09/12 10:38:20;;;;;;;9.18;6.63;;;;;;;21.24;79.83;101427.72;5033363;28;20417;-72
2022/09/12 10:40:55;;;;;;;7.25;6.30;;;;;;;21.37;75.62;101429.69;5032826;28;20029;-72
2022/09/12 10:43:34;;;;;;;7.60;6.18;;;;;;;21.44;70.99;101421.25;5033072;28;20079;-72
2022/09/12 10:46:15;;;;;;;6.47;5.85;;;;;;;21.45;74.48;101424.75;5032860;28;20029;-72
2022/09/12 10:48:41;;;;;;;7.25;5.75;;;;;;;21.43;72.63;101418.72;5032859;28;20045;-72
2022/09/12 10:51:22;;;;;;;6.68;5.57;;;;;;;21.55;71.92;101407.38;5033425;28;20048;-72
2022/09/12 10:53:53;;;;;;;5.40;4.80;;;;;;;21.71;71.78;101408.13;5032460;28;20034;-72
2022/09/12 10:56:26;;;;;;;7.57;5.10;;;;;;;21.91;72.31;101395.44;5032645;28;20504;-71
2022/09/12 10:59:02;;;;;;;6.20;5.47;;;;;;;22.00;70.08;101392.19;5033241;28;20040;-72
2022/09/12 11:01:41;;;;;;;6.88;5.53;;;;;;;22.10;67.11;101398.63;5031973;28;20033;-72
2022/09/12 11:04:06;;;;;;;4.85;4.45;;;;;;;22.24;67.87;101392.50;5033038;28;20152;-72
2022/09/12 11:06:56;;;;;;;11.53;4.70;;;;;;;22.40;66.86;101395.88;5032628;28;20044;-72
2022/09/12 11:09:34;;;;;;;7.00;4.30;;;;;;;22.53;63.60;101384.41;5021518;28;20080;-72
2022/09/12 11:12:11;;;;;;;4.57;4.15;;;;;;;22.63;63.08;101378.44;5032911;28;20053;-72
2022/09/12 11:14:58;;;;;;;5.60;4.00;;;;;;;22.83;62.08;101386.91;5031900;28;20041;-72
2022/09/12 11:17:40;;;;;;;5.13;3.90;;;;;;;22.93;63.52;101388.00;5032643;28;20029;-72
2022/09/12 11:20:34;;;;;;;5.17;4.67;;;;;;;23.06;65.03;101375.59;5032969;28;20039;-72
2022/09/12 11:23:40;;;;;;;6.22;4.50;;;;;;;23.31;63.76;101382.75;5032114;28;20350;-72